Time;durP1;ratioP1;P1;durP2;ratioP2;P2;SDS_P1;SDS_P2;PMS_P1;PMS_P2;Temp;Humidity;BMP_temperature;BMP_pressure;BME280_temperature;BME280_humidity;BME280_pressure;Samples;Min_cycle;Max_cycle;Signal;HPM_P1;HPM_P2
2024/01/10 00:00:47;;;;;;;23.87;11.03;;;-4.20;97.40;;;;;;2037643;29;20223;-64
2024/01/10 00:01:47;;;;;;;20.70;11.40;;;-4.20;97.40;;;;;;2045873;28;20218;-65
2024/01/10 00:02:48;;;;;;;17.83;9.10;;;-4.10;97.30;;;;;;2039329;29;20222;-65
2024/01/10 00:03:49;;;;;;;18.63;10.60;;;-4.10;97.00;;;;;;2039707;29;20299;-65
2024/01/10 00:04:50;;;;;;;20.60;10.90;;;-4.20;96.80;;;;;;2044636;28;20242;-64
2024/01/10 00:05:50;;;;;;;17.70;9.30;;;-4.10;96.10;;;;;;2044454;28;20217;-64
2024/01/10 00:06:51;;;;;;;19.77;10.00;;;-4.20;96.30;;;;;;2044168;28;20856;-65
2024/01/10 00:07:52;;;;;;;19.67;10.53;;;-4.20;96.70;;;;;;2043778;28;20367;-64
2024/01/10 00:08:52;;;;;;;15.80;9.33;;;-4.30;96.90;;;;;;2043837;28;20313;-64
2024/01/10 00:09:53;;;;;;;17.93;10.93;;;-4.40;96.60;;;;;;2047516;28;20270;-64
2024/01/10 00:10:54;;;;;;;18.83;10.23;;;-4.40;96.90;;;;;;2047156;28;20240;-65
2024/01/10 00:11:55;;;;;;;19.60;10.10;;;-4.50;97.70;;;;;;2047021;28;20225;-64
2024/01/10 00:12:55;;;;;;;19.30;9.63;;;-4.40;97.30;;;;;;2046192;28;20472;-64
2024/01/10 00:13:59;;;;;;;16.97;10.20;;;-4.50;97.50;;;;;;2045889;28;20228;-65
2024/01/10 00:15:01;;;;;;;21.33;10.73;;;-4.50;97.70;;;;;;2046073;28;20228;-64
2024/01/10 00:16:01;;;;;;;23.17;10.90;;;-4.50;98.10;;;;;;2044627;28;20297;-64
2024/01/10 00:17:02;;;;;;;18.77;10.33;;;-4.50;98.20;;;;;;2045483;28;20197;-64
2024/01/10 00:18:03;;;;;;;18.23;9.93;;;-4.50;97.60;;;;;;2044223;28;20212;-65
2024/01/10 00:19:03;;;;;;;23.07;11.03;;;-4.50;97.50;;;;;;2044374;28;20271;-64
2024/01/10 00:20:05;;;;;;;16.33;9.83;;;-4.50;97.60;;;;;;2043706;28;20202;-64
2024/01/10 00:21:10;;;;;;;18.95;10.00;;;-4.50;97.80;;;;;;2045570;28;20183;-64
2024/01/10 00:22:11;;;;;;;20.55;10.23;;;-4.50;97.90;;;;;;2047482;28;20262;-63
2024/01/10 00:23:11;;;;;;;18.77;10.30;;;-4.50;97.90;;;;;;2046294;28;20191;-64
2024/01/10 00:24:12;;;;;;;19.60;10.13;;;-4.40;97.90;;;;;;2047575;28;20193;-63
2024/01/10 00:25:13;;;;;;;23.03;12.10;;;-4.40;97.80;;;;;;2046597;28;20213;-65
2024/01/10 00:26:13;;;;;;;18.77;10.47;;;-4.30;97.70;;;;;;2045553;28;20285;-65
2024/01/10 00:27:15;;;;;;;22.40;11.57;;;-4.20;97.70;;;;;;2045259;28;20178;-65
2024/01/10 00:28:19;;;;;;;22.13;12.23;;;-4.10;97.50;;;;;;2036972;29;20747;-64
2024/01/10 00:29:20;;;;;;;20.42;11.05;;;-4.20;97.50;;;;;;2037213;29;20187;-65
2024/01/10 00:30:21;;;;;;;23.53;12.07;;;-4.20;97.70;;;;;;2045417;28;20787;-65
2024/01/10 00:31:22;;;;;;;21.58;11.23;;;-4.10;97.70;;;;;;2043635;28;20758;-64
2024/01/10 00:32:22;;;;;;;21.17;11.63;;;-4.10;97.60;;;;;;2047712;28;20230;-64
2024/01/10 00:33:23;;;;;;;20.43;11.10;;;-4.00;97.60;;;;;;2043130;29;20830;-65
2024/01/10 00:34:23;;;;;;;23.07;12.20;;;-4.00;97.30;;;;;;2051225;28;20312;-65
2024/01/10 00:35:24;;;;;;;18.60;10.20;;;-3.90;97.20;;;;;;2047368;28;20259;-64
2024/01/10 00:36:26;;;;;;;19.33;11.30;;;-3.90;97.00;;;;;;2046822;28;20237;-65
2024/01/10 00:37:27;;;;;;;18.40;10.80;;;-4.00;97.00;;;;;;2039448;29;20635;-64
2024/01/10 00:38:28;;;;;;;19.23;10.90;;;-4.00;97.30;;;;;;2039342;29;20242;-65
2024/01/10 00:39:28;;;;;;;20.67;11.40;;;-4.00;97.40;;;;;;2039267;28;20236;-65
2024/01/10 00:40:29;;;;;;;21.33;11.67;;;-4.00;97.30;;;;;;2039271;28;20242;-65
2024/01/10 00:41:30;;;;;;;23.40;11.83;;;-4.00;97.30;;;;;;2044543;28;20587;-64
2024/01/10 00:42:30;;;;;;;21.10;10.70;;;-4.00;97.40;;;;;;2044584;28;20242;-65
2024/01/10 00:43:31;;;;;;;25.33;12.40;;;-4.00;97.30;;;;;;2044989;28;20227;-65
2024/01/10 00:44:32;;;;;;;22.08;12.25;;;-4.00;96.90;;;;;;2044465;28;20237;-65
2024/01/10 00:45:33;;;;;;;16.20;9.70;;;-4.00;97.10;;;;;;2044178;28;20316;-64
2024/01/10 00:46:34;;;;;;;22.90;11.50;;;-4.00;97.10;;;;;;2044041;28;20839;-64
2024/01/10 00:47:34;;;;;;;19.80;10.83;;;-4.00;97.50;;;;;;2046977;28;20317;-64
2024/01/10 00:48:35;;;;;;;18.63;10.33;;;-4.00;96.90;;;;;;2047664;28;20250;-64
2024/01/10 00:49:36;;;;;;;19.87;10.17;;;-4.00;97.00;;;;;;2047388;28;20241;-65
2024/01/10 00:50:36;;;;;;;19.90;11.07;;;-4.00;97.00;;;;;;2047567;28;20622;-64
2024/01/10 00:51:37;;;;;;;20.10;11.30;;;-4.00;97.50;;;;;;2045995;28;20246;-64
2024/01/10 00:52:38;;;;;;;16.87;10.60;;;-4.10;97.60;;;;;;2045050;28;20331;-65
2024/01/10 00:53:38;;;;;;;20.10;10.80;;;-4.00;97.70;;;;;;2044721;28;20228;-64
2024/01/10 00:54:39;;;;;;;23.40;10.40;;;-4.00;97.80;;;;;;2045296;28;20238;-64
2024/01/10 00:55:40;;;;;;;16.97;9.37;;;-4.00;97.70;;;;;;2045120;28;20242;-64
2024/01/10 00:56:40;;;;;;;24.43;11.27;;;-4.10;97.40;;;;;;2044621;28;20225;-64
2024/01/10 00:57:41;;;;;;;20.77;11.27;;;-4.10;97.50;;;;;;2044160;28;20233;-65
2024/01/10 00:58:42;;;;;;;19.17;10.37;;;-4.10;97.60;;;;;;2042986;28;20288;-65
2024/01/10 00:59:42;;;;;;;19.53;11.13;;;-4.10;97.80;;;;;;2047416;28;20693;-65
2024/01/10 01:00:43;;;;;;;21.53;11.00;;;-4.20;98.40;;;;;;2047194;28;20229;-64
2024/01/10 01:01:44;;;;;;;22.40;12.23;;;-4.10;98.00;;;;;;2047396;28;20227;-65
2024/01/10 01:02:45;;;;;;;22.60;11.10;;;-4.00;98.20;;;;;;2046255;28;20233;-64
2024/01/10 01:03:45;;;;;;;17.57;10.37;;;-4.10;98.20;;;;;;2037279;29;20225;-65
2024/01/10 01:04:46;;;;;;;19.10;10.90;;;-4.10;98.00;;;;;;2039348;29;20266;-65
2024/01/10 01:05:47;;;;;;;21.17;11.83;;;-4.10;98.00;;;;;;2052993;28;20217;-64
2024/01/10 01:06:47;;;;;;;22.07;12.93;;;-4.20;98.00;;;;;;2045470;28;20309;-65
2024/01/10 01:07:48;;;;;;;19.73;10.70;;;-4.10;98.30;;;;;;2045077;28;20245;-65
2024/01/10 01:08:49;;;;;;;21.63;12.73;;;-4.10;98.20;;;;;;2044725;28;20226;-64
2024/01/10 01:09:49;;;;;;;18.53;10.47;;;-4.00;98.20;;;;;;2044110;28;20607;-65
2024/01/10 01:10:50;;;;;;;20.27;12.13;;;-4.10;98.00;;;;;;2043616;28;20300;-64
2024/01/10 01:11:51;;;;;;;18.77;10.60;;;-4.10;98.20;;;;;;2042879;28;20296;-64
2024/01/10 01:12:52;;;;;;;22.33;10.90;;;-4.20;98.10;;;;;;2046557;28;20247;-65
2024/01/10 01:13:52;;;;;;;18.50;10.47;;;-4.30;98.20;;;;;;2046810;28;20313;-64
2024/01/10 01:14:53;;;;;;;22.60;12.27;;;-4.40;98.50;;;;;;2038260;29;20731;-64
2024/01/10 01:15:54;;;;;;;20.03;10.17;;;-4.40;98.60;;;;;;2045780;28;20217;-64
2024/01/10 01:16:54;;;;;;;22.73;11.60;;;-4.40;98.70;;;;;;2046210;28;20226;-65
2024/01/10 01:17:55;;;;;;;16.43;9.63;;;-4.40;98.70;;;;;;2045200;28;20601;-64
2024/01/10 01:18:56;;;;;;;18.90;10.67;;;-4.40;98.80;;;;;;2045279;28;20231;-65
2024/01/10 01:19:57;;;;;;;21.00;11.40;;;-4.30;98.80;;;;;;2045013;28;20231;-65
2024/01/10 01:20:58;;;;;;;18.17;10.70;;;-4.30;98.50;;;;;;2044631;28;20710;-65
2024/01/10 01:21:59;;;;;;;23.55;11.77;;;-4.30;98.60;;;;;;2045233;28;20649;-64
2024/01/10 01:22:59;;;;;;;18.13;10.13;;;-4.40;98.90;;;;;;2046445;28;20245;-64
2024/01/10 01:24:00;;;;;;;21.27;12.07;;;-4.40;98.50;;;;;;2042990;28;20226;-64
2024/01/10 01:25:01;;;;;;;18.13;10.83;;;-4.40;98.20;;;;;;2044634;28;20213;-64
2024/01/10 01:26:01;;;;;;;18.27;10.23;;;-4.50;98.20;;;;;;2046958;28;20334;-64
2024/01/10 01:27:03;;;;;;;20.17;12.03;;;-4.50;98.30;;;;;;2046649;28;20205;-64
2024/01/10 01:28:04;;;;;;;20.48;11.55;;;-4.50;98.40;;;;;;2046421;28;20187;-64
2024/01/10 01:29:05;;;;;;;18.00;10.10;;;-4.50;98.50;;;;;;2046307;28;20238;-64
2024/01/10 01:30:07;;;;;;;18.63;9.60;;;-4.60;98.50;;;;;;2045803;28;20266;-64
2024/01/10 01:31:07;;;;;;;22.38;11.23;;;-4.50;98.60;;;;;;2045398;28;20182;-65
2024/01/10 01:32:08;;;;;;;22.37;11.10;;;-4.40;98.70;;;;;;2044783;28;20236;-65
2024/01/10 01:33:09;;;;;;;18.80;10.43;;;-4.40;98.70;;;;;;2044358;28;20189;-64
2024/01/10 01:34:09;;;;;;;20.50;10.57;;;-4.30;98.40;;;;;;2044130;28;20245;-64
2024/01/10 01:35:10;;;;;;;19.90;11.27;;;-4.30;98.00;;;;;;2043345;28;20195;-64
2024/01/10 01:36:11;;;;;;;22.10;11.33;;;-4.30;97.90;;;;;;2043734;28;20203;-64
2024/01/10 01:37:11;;;;;;;19.70;11.30;;;-4.20;97.90;;;;;;2042895;28;20706;-64
2024/01/10 01:38:12;;;;;;;18.57;11.87;;;-4.30;97.90;;;;;;2045681;28;20176;-65
2024/01/10 01:39:13;;;;;;;21.60;11.77;;;-4.20;98.20;;;;;;2046072;28;20188;-64
2024/01/10 01:40:14;;;;;;;17.73;10.60;;;-4.20;98.20;;;;;;2047950;28;20674;-64
2024/01/10 01:41:15;;;;;;;21.83;12.07;;;-4.20;98.30;;;;;;2045315;28;20277;-64
2024/01/10 01:42:16;;;;;;;18.52;10.88;;;-4.20;98.50;;;;;;2045126;28;20211;-65
2024/01/10 01:43:24;;;;;;;22.52;11.25;;;-4.30;99.20;;;;;;2044869;28;20216;-64
2024/01/10 01:44:25;;;;;;;20.80;10.60;;;-4.40;98.70;;;;;;2042434;28;20234;-64
2024/01/10 01:45:26;;;;;;;21.50;10.97;;;-4.50;99.00;;;;;;2044758;28;20325;-64
2024/01/10 01:46:27;;;;;;;20.20;10.70;;;-4.50;99.20;;;;;;2044544;28;20258;-64
2024/01/10 01:47:29;;;;;;;19.70;11.13;;;-4.40;99.20;;;;;;2046560;28;20227;-65
2024/01/10 01:48:30;;;;;;;20.70;11.27;;;-4.50;99.10;;;;;;2043250;28;20729;-64
2024/01/10 01:49:30;;;;;;;22.33;11.88;;;-4.40;99.30;;;;;;2049653;28;20242;-64
2024/01/10 01:50:31;;;;;;;21.13;11.50;;;-4.40;99.20;;;;;;2047194;28;20226;-64
2024/01/10 01:51:34;;;;;;;22.37;11.90;;;-4.30;99.10;;;;;;2046503;28;20774;-65
2024/01/10 01:52:35;;;;;;;18.45;11.40;;;-4.30;99.40;;;;;;2046691;28;20230;-64
2024/01/10 01:53:36;;;;;;;20.17;11.27;;;-4.20;99.00;;;;;;2046595;28;20232;-64
2024/01/10 01:54:37;;;;;;;20.95;11.18;;;-4.20;99.10;;;;;;2046795;28;20230;-64
2024/01/10 01:55:38;;;;;;;20.73;9.87;;;-4.20;99.10;;;;;;2046968;28;20231;-65
2024/01/10 01:56:39;;;;;;;25.90;12.50;;;-4.20;99.10;;;;;;2045329;28;20228;-65
2024/01/10 01:57:40;;;;;;;22.15;12.68;;;-4.20;99.20;;;;;;2044915;28;20234;-65
2024/01/10 01:58:41;;;;;;;20.17;11.80;;;-4.20;99.20;;;;;;2045103;28;20239;-65
2024/01/10 01:59:41;;;;;;;20.43;11.43;;;-4.20;98.80;;;;;;2043370;28;20244;-64
2024/01/10 02:00:43;;;;;;;20.27;12.03;;;-4.20;98.80;;;;;;2043478;28;20262;-64
2024/01/10 02:01:44;;;;;;;19.58;10.85;;;-4.10;98.90;;;;;;2042219;28;20234;-65
2024/01/10 02:02:45;;;;;;;20.43;11.90;;;-4.20;98.80;;;;;;2043275;28;20262;-65
2024/01/10 02:03:45;;;;;;;21.10;11.60;;;-4.20;98.90;;;;;;2046156;28;20213;-64
2024/01/10 02:04:47;;;;;;;20.40;11.60;;;-4.30;98.90;;;;;;2038805;28;20302;-64
2024/01/10 02:05:47;;;;;;;21.23;11.73;;;-4.30;99.10;;;;;;2045140;28;20216;-64
2024/01/10 02:06:48;;;;;;;20.97;11.33;;;-4.30;99.30;;;;;;2045778;28;20231;-64
2024/01/10 02:07:49;;;;;;;20.70;11.97;;;-4.40;99.40;;;;;;2044430;28;20226;-64
2024/01/10 02:08:52;;;;;;;23.17;11.93;;;-4.40;99.40;;;;;;2044713;28;20920;-65
2024/01/10 02:09:53;;;;;;;19.42;11.77;;;-4.50;99.90;;;;;;2044890;28;20230;-65
2024/01/10 02:10:54;;;;;;;24.55;12.98;;;-4.40;99.90;;;;;;2044331;28;20335;-64
2024/01/10 02:11:55;;;;;;;17.60;10.53;;;-4.40;99.90;;;;;;2043184;28;20724;-64
2024/01/10 02:12:56;;;;;;;21.83;11.63;;;-4.50;99.90;;;;;;2037937;29;20218;-63
2024/01/10 02:13:57;;;;;;;20.20;11.83;;;-4.60;99.90;;;;;;2038277;29;20334;-64
2024/01/10 02:14:59;;;;;;;19.73;11.20;;;-4.60;99.90;;;;;;2042680;28;20260;-64
2024/01/10 02:16:00;;;;;;;22.55;11.70;;;-4.50;99.90;;;;;;2038340;29;20221;-64
2024/01/10 02:17:01;;;;;;;18.63;11.13;;;-4.50;99.90;;;;;;2045057;28;20229;-62
2024/01/10 02:18:01;;;;;;;20.90;11.53;;;-4.40;99.90;;;;;;2045338;28;20191;-65
2024/01/10 02:19:18;;;;;;;21.60;12.13;;;-4.40;99.80;;;;;;2044870;28;20188;-64
2024/01/10 02:20:21;;;;;;;20.73;12.05;;;-4.30;99.90;;;;;;2045543;28;20242;-65
2024/01/10 02:21:22;;;;;;;21.98;11.98;;;-4.20;99.70;;;;;;2045538;28;20880;-65
2024/01/10 02:22:22;;;;;;;20.25;11.70;;;-4.20;99.60;;;;;;2044217;28;20260;-65
2024/01/10 02:23:23;;;;;;;19.63;11.10;;;-4.20;99.50;;;;;;2040202;28;20242;-64
2024/01/10 02:24:24;;;;;;;22.63;11.43;;;-4.20;99.40;;;;;;2042648;28;20235;-64
2024/01/10 02:25:24;;;;;;;17.70;10.30;;;-4.10;99.30;;;;;;2042602;28;20883;-65
2024/01/10 02:26:27;;;;;;;20.13;11.37;;;-4.10;99.20;;;;;;2043190;28;20330;-65
2024/01/10 02:27:27;;;;;;;23.35;10.32;;;-4.10;99.00;;;;;;2042356;28;20231;-64
2024/01/10 02:28:28;;;;;;;20.83;11.70;;;-4.10;98.90;;;;;;2046407;28;20258;-64
2024/01/10 02:29:30;;;;;;;24.10;11.27;;;-4.10;99.00;;;;;;2045511;28;20371;-64
2024/01/10 02:30:31;;;;;;;23.67;10.95;;;-4.00;99.10;;;;;;2045515;28;20282;-64
2024/01/10 02:31:32;;;;;;;20.87;12.07;;;-4.00;99.00;;;;;;2044569;28;20364;-63
2024/01/10 02:32:33;;;;;;;23.70;12.07;;;-4.00;98.80;;;;;;2045643;28;20325;-65
2024/01/10 02:33:34;;;;;;;22.00;11.35;;;-4.00;98.90;;;;;;2038299;28;20257;-65
2024/01/10 02:34:35;;;;;;;25.70;13.65;;;-4.10;98.90;;;;;;2042535;28;20238;-63
2024/01/10 02:35:35;;;;;;;21.37;11.33;;;-4.00;98.90;;;;;;2045189;28;20259;-63
2024/01/10 02:36:36;;;;;;;25.37;12.27;;;-4.00;99.10;;;;;;2037619;29;20719;-64
2024/01/10 02:37:37;;;;;;;18.17;10.47;;;-4.10;99.90;;;;;;2041955;28;20572;-65
2024/01/10 02:38:37;;;;;;;22.37;12.37;;;-4.10;99.90;;;;;;2040136;28;20258;-65
2024/01/10 02:39:38;;;;;;;20.77;12.80;;;-4.20;99.60;;;;;;2041660;28;20742;-65
2024/01/10 02:40:39;;;;;;;17.70;10.47;;;-4.20;99.60;;;;;;2042335;28;20225;-65
2024/01/10 02:41:39;;;;;;;21.40;11.43;;;-4.20;99.50;;;;;;2046511;28;20268;-64
2024/01/10 02:42:41;;;;;;;20.50;11.80;;;-4.10;99.40;;;;;;2045269;28;20330;-64
2024/01/10 02:43:42;;;;;;;23.75;13.00;;;-4.30;99.60;;;;;;2044114;28;20621;-64
2024/01/10 02:44:43;;;;;;;20.73;11.77;;;-4.40;99.90;;;;;;2044927;28;20319;-65
2024/01/10 02:45:43;;;;;;;21.25;10.85;;;-4.40;99.90;;;;;;2043264;28;20741;-64
2024/01/10 02:46:44;;;;;;;19.73;11.00;;;-4.30;99.90;;;;;;2043762;28;20225;-64
2024/01/10 02:47:45;;;;;;;20.07;11.10;;;-4.20;99.70;;;;;;2043652;28;20224;-65
2024/01/10 02:48:46;;;;;;;22.47;12.17;;;-4.20;99.30;;;;;;2043375;28;20808;-64
2024/01/10 02:49:47;;;;;;;17.98;10.57;;;-4.10;99.10;;;;;;2043835;28;20220;-65
2024/01/10 02:50:47;;;;;;;22.03;11.33;;;-4.00;98.80;;;;;;2042671;28;20307;-65
2024/01/10 02:51:48;;;;;;;22.17;12.40;;;-3.90;98.50;;;;;;2042828;28;20253;-64
2024/01/10 02:52:49;;;;;;;20.03;10.67;;;-3.90;98.30;;;;;;2042219;28;20363;-64
2024/01/10 02:53:50;;;;;;;19.70;11.07;;;-3.90;98.20;;;;;;2041164;28;20528;-65
2024/01/10 02:54:50;;;;;;;18.73;10.13;;;-3.80;98.20;;;;;;2044296;28;20622;-65
2024/01/10 02:55:51;;;;;;;21.33;11.57;;;-3.80;97.90;;;;;;2045454;28;20313;-64
2024/01/10 02:56:52;;;;;;;21.50;11.93;;;-3.80;97.80;;;;;;2045054;28;20295;-64
2024/01/10 02:57:53;;;;;;;20.57;11.53;;;-3.70;97.70;;;;;;2044176;28;20222;-64
2024/01/10 02:58:53;;;;;;;19.73;10.90;;;-3.70;97.50;;;;;;2044008;28;20251;-64
2024/01/10 02:59:54;;;;;;;18.67;10.73;;;-3.70;97.50;;;;;;2043644;28;20229;-64
2024/01/10 03:00:55;;;;;;;18.60;11.27;;;-3.70;97.60;;;;;;2043786;28;20234;-65
2024/01/10 03:01:55;;;;;;;20.43;11.53;;;-3.70;97.60;;;;;;2043087;28;20222;-65
2024/01/10 03:02:56;;;;;;;20.87;11.70;;;-3.80;97.40;;;;;;2035822;29;20218;-65
2024/01/10 03:03:57;;;;;;;21.73;11.63;;;-3.90;97.60;;;;;;2036903;29;20238;-64
2024/01/10 03:04:58;;;;;;;19.60;10.45;;;-3.90;98.20;;;;;;2045702;28;20691;-65
2024/01/10 03:05:58;;;;;;;21.90;11.47;;;-3.90;98.30;;;;;;2043043;28;20230;-64
2024/01/10 03:06:59;;;;;;;18.93;9.73;;;-3.90;98.10;;;;;;2045607;28;20224;-65
2024/01/10 03:08:02;;;;;;;20.97;12.10;;;-3.90;98.10;;;;;;2043474;28;20239;-64
2024/01/10 03:09:03;;;;;;;21.35;11.25;;;-3.90;98.00;;;;;;2043835;28;20224;-64
2024/01/10 03:10:04;;;;;;;22.80;11.40;;;-4.00;98.00;;;;;;2044136;28;20540;-64
2024/01/10 03:11:04;;;;;;;19.67;10.82;;;-4.00;98.40;;;;;;2044677;28;20186;-65
2024/01/10 03:12:05;;;;;;;19.77;10.90;;;-4.00;98.40;;;;;;2044537;28;20190;-64
2024/01/10 03:13:06;;;;;;;19.63;10.87;;;-4.00;98.30;;;;;;2044426;28;20187;-64
2024/01/10 03:14:11;;;;;;;22.27;11.60;;;-3.90;98.30;;;;;;2043518;28;20325;-64
2024/01/10 03:15:12;;;;;;;19.55;10.77;;;-3.90;98.30;;;;;;2043907;28;20269;-64
2024/01/10 03:16:13;;;;;;;19.20;10.73;;;-3.90;98.30;;;;;;2042554;28;20281;-65
2024/01/10 03:17:14;;;;;;;18.88;10.45;;;-3.90;98.40;;;;;;2043697;28;20572;-64
2024/01/10 03:18:15;;;;;;;22.93;11.87;;;-3.90;98.50;;;;;;2041559;28;20299;-64
2024/01/10 03:19:15;;;;;;;22.90;12.23;;;-3.90;98.50;;;;;;2045800;28;20197;-64
2024/01/10 03:20:16;;;;;;;22.67;11.90;;;-4.00;98.40;;;;;;2047544;28;20198;-64
2024/01/10 03:21:24;;;;;;;25.07;12.83;;;-4.10;98.50;;;;;;2044141;28;20238;-64
2024/01/10 03:22:38;;;;;;;20.35;12.52;;;-4.20;98.90;;;;;;2043703;28;20251;-64
2024/01/10 03:23:39;;;;;;;20.13;11.23;;;-4.10;99.10;;;;;;2038305;28;20237;-64
2024/01/10 03:24:39;;;;;;;23.53;11.77;;;-4.10;99.20;;;;;;2043615;28;20716;-65
2024/01/10 03:25:40;;;;;;;23.30;11.80;;;-4.00;99.30;;;;;;2049265;28;20813;-64
2024/01/10 03:26:42;;;;;;;20.77;11.40;;;-3.90;99.20;;;;;;2047991;28;20218;-64
2024/01/10 03:27:42;;;;;;;19.58;11.63;;;-4.00;99.20;;;;;;2043188;28;20230;-63
2024/01/10 03:28:43;;;;;;;21.33;12.60;;;-4.00;99.10;;;;;;2042844;28;20231;-64
2024/01/10 03:29:44;;;;;;;21.60;12.03;;;-3.90;99.10;;;;;;2042855;28;20255;-65
2024/01/10 03:30:45;;;;;;;22.33;11.17;;;-3.90;99.00;;;;;;2042267;28;20234;-65
2024/01/10 03:31:45;;;;;;;22.45;12.63;;;-3.90;99.10;;;;;;2041601;28;20230;-65
2024/01/10 03:32:46;;;;;;;21.73;12.10;;;-3.90;99.00;;;;;;2045494;28;20230;-64
2024/01/10 03:33:47;;;;;;;23.47;12.37;;;-3.90;99.10;;;;;;2045594;28;20308;-65
2024/01/10 03:34:51;;;;;;;20.47;11.60;;;-3.90;99.20;;;;;;2044815;28;20256;-64
2024/01/10 03:35:51;;;;;;;23.42;12.13;;;-3.80;99.30;;;;;;2045697;28;20232;-64
2024/01/10 03:36:52;;;;;;;20.47;11.00;;;-3.80;99.70;;;;;;2044076;28;20836;-65
2024/01/10 03:37:53;;;;;;;18.93;11.23;;;-3.80;99.50;;;;;;2044449;28;20218;-63
2024/01/10 03:38:54;;;;;;;21.43;11.27;;;-4.00;99.20;;;;;;2043829;28;20223;-64
2024/01/10 03:39:54;;;;;;;21.75;12.25;;;-4.00;99.10;;;;;;2043552;28;20234;-65
2024/01/10 03:40:55;;;;;;;25.07;12.67;;;-4.00;99.10;;;;;;2042612;28;20233;-65
2024/01/10 03:41:56;;;;;;;20.37;12.00;;;-3.90;99.70;;;;;;2042640;28;20254;-64
2024/01/10 03:42:56;;;;;;;20.60;11.47;;;-4.00;99.50;;;;;;2042178;28;20246;-64
2024/01/10 03:43:57;;;;;;;21.83;12.70;;;-3.90;99.30;;;;;;2042907;28;20223;-65
2024/01/10 03:44:58;;;;;;;20.30;11.13;;;-3.90;99.10;;;;;;2043158;28;20249;-65
2024/01/10 03:45:59;;;;;;;21.00;11.33;;;-3.90;99.00;;;;;;2045560;28;20669;-65
2024/01/10 03:46:59;;;;;;;22.93;12.27;;;-3.80;98.90;;;;;;2044597;28;20246;-64
2024/01/10 03:48:00;;;;;;;20.93;11.23;;;-3.80;98.60;;;;;;2044824;28;20314;-64
2024/01/10 03:49:01;;;;;;;23.17;11.50;;;-3.80;98.60;;;;;;2044018;28;20314;-64
2024/01/10 03:50:01;;;;;;;20.50;12.57;;;-3.80;98.60;;;;;;2044628;28;20559;-65
2024/01/10 03:51:03;;;;;;;22.97;12.33;;;-3.70;98.60;;;;;;2044121;28;20565;-64
2024/01/10 03:52:04;;;;;;;21.42;11.80;;;-3.80;98.60;;;;;;2044404;28;20183;-65
2024/01/10 03:53:04;;;;;;;22.73;12.13;;;-3.80;98.80;;;;;;2042147;28;20266;-65
2024/01/10 03:54:05;;;;;;;21.63;12.77;;;-3.90;99.10;;;;;;2042311;28;20221;-63
2024/01/10 03:55:06;;;;;;;21.00;12.07;;;-4.00;99.60;;;;;;2042620;28;20216;-64
2024/01/10 03:56:07;;;;;;;23.00;12.23;;;-4.20;99.90;;;;;;2042384;28;20732;-64
2024/01/10 03:57:08;;;;;;;23.17;12.63;;;-4.30;99.90;;;;;;2043629;28;20187;-64
2024/01/10 03:58:09;;;;;;;26.43;12.80;;;-4.40;99.90;;;;;;2045837;28;20702;-64
2024/01/10 03:59:09;;;;;;;22.53;12.07;;;-4.50;99.90;;;;;;2045513;28;20240;-64
2024/01/10 04:00:11;;;;;;;24.10;11.90;;;-4.40;99.90;;;;;;2045394;28;20663;-65
2024/01/10 04:01:13;;;;;;;22.13;12.80;;;-4.40;99.90;;;;;;2043990;28;20701;-64
2024/01/10 04:02:13;;;;;;;24.20;13.85;;;-4.40;99.90;;;;;;2045123;28;20211;-64
2024/01/10 04:03:14;;;;;;;22.47;11.87;;;-4.50;99.90;;;;;;2044523;28;20177;-64
2024/01/10 04:04:15;;;;;;;22.13;12.20;;;-4.40;99.90;;;;;;2044031;28;20204;-65
2024/01/10 04:05:15;;;;;;;21.47;12.17;;;-4.50;99.90;;;;;;2034611;29;20630;-65
2024/01/10 04:06:16;;;;;;;26.27;13.37;;;-4.50;99.90;;;;;;2035207;29;20206;-64
2024/01/10 04:07:17;;;;;;;24.00;13.27;;;-4.50;99.90;;;;;;2042788;28;20264;-65
2024/01/10 04:08:17;;;;;;;25.93;12.90;;;-4.60;99.90;;;;;;2042650;28;20221;-64
2024/01/10 04:09:18;;;;;;;22.40;11.87;;;-4.60;99.90;;;;;;2042297;28;20191;-64
2024/01/10 04:10:19;;;;;;;27.60;14.20;;;-4.60;99.90;;;;;;2045275;28;20186;-64
2024/01/10 04:11:19;;;;;;;20.57;10.37;;;-4.60;99.90;;;;;;2045688;28;20185;-64
2024/01/10 04:12:20;;;;;;;25.10;13.63;;;-4.60;99.90;;;;;;2045483;28;20230;-64
2024/01/10 04:13:21;;;;;;;25.33;13.37;;;-4.50;99.90;;;;;;2044944;28;20821;-65
2024/01/10 04:14:21;;;;;;;24.17;13.17;;;-4.40;99.90;;;;;;2043719;28;20241;-65
2024/01/10 04:15:22;;;;;;;21.87;11.23;;;-4.50;99.90;;;;;;2044331;28;20237;-64
2024/01/10 04:16:23;;;;;;;23.03;12.27;;;-4.50;99.90;;;;;;2045404;28;20241;-64
2024/01/10 04:17:24;;;;;;;22.00;12.00;;;-4.50;99.90;;;;;;2038050;29;20321;-63
2024/01/10 04:18:24;;;;;;;29.47;14.27;;;-4.60;99.90;;;;;;2034215;29;20244;-65
2024/01/10 04:19:25;;;;;;;27.33;14.53;;;-4.50;99.90;;;;;;2034738;29;20826;-64
2024/01/10 04:20:25;;;;;;;21.67;11.87;;;-4.50;99.90;;;;;;2041525;28;20248;-64
2024/01/10 04:21:26;;;;;;;22.20;12.97;;;-4.60;99.90;;;;;;2042426;28;20229;-64
2024/01/10 04:22:27;;;;;;;24.33;12.87;;;-4.50;99.90;;;;;;2042404;28;20871;-64
2024/01/10 04:23:28;;;;;;;25.97;13.57;;;-4.40;99.90;;;;;;2045730;28;20730;-65
2024/01/10 04:24:28;;;;;;;24.77;12.00;;;-4.40;99.90;;;;;;2045691;28;20229;-64
2024/01/10 04:25:29;;;;;;;23.37;12.57;;;-4.40;99.90;;;;;;2044783;28;20239;-64
2024/01/10 04:26:29;;;;;;;21.87;12.90;;;-4.40;99.90;;;;;;2045111;28;20855;-64
2024/01/10 04:27:30;;;;;;;27.40;15.83;;;-4.30;99.90;;;;;;2045840;28;20238;-65
2024/01/10 04:28:31;;;;;;;25.90;13.07;;;-4.30;99.90;;;;;;2045288;28;20235;-64
2024/01/10 04:29:32;;;;;;;27.10;14.93;;;-4.40;99.90;;;;;;2045485;28;20657;-64
2024/01/10 04:30:32;;;;;;;27.93;15.33;;;-4.40;99.90;;;;;;2043067;28;20329;-65
2024/01/10 04:31:33;;;;;;;26.70;13.57;;;-4.40;99.90;;;;;;2045324;28;20226;-64
2024/01/10 04:32:34;;;;;;;22.13;12.10;;;-4.40;99.90;;;;;;2034147;29;20261;-64
2024/01/10 04:33:36;;;;;;;24.65;14.55;;;-4.40;99.90;;;;;;2035019;29;20246;-64
2024/01/10 04:34:36;;;;;;;25.27;12.82;;;-4.30;99.90;;;;;;2043601;28;20234;-65
2024/01/10 04:35:37;;;;;;;23.33;12.87;;;-4.30;99.90;;;;;;2043145;28;20905;-65
2024/01/10 04:36:38;;;;;;;25.87;13.73;;;-4.20;99.90;;;;;;2045866;28;20233;-65
2024/01/10 04:37:38;;;;;;;25.27;11.83;;;-4.20;99.90;;;;;;2046655;28;20241;-64
2024/01/10 04:38:39;;;;;;;21.97;12.47;;;-4.30;99.90;;;;;;2046011;28;20238;-65
2024/01/10 04:39:42;;;;;;;23.53;13.47;;;-4.40;99.90;;;;;;2045436;28;20257;-64
2024/01/10 04:40:43;;;;;;;22.80;13.23;;;-4.40;99.90;;;;;;2046209;28;20252;-64
2024/01/10 04:41:43;;;;;;;24.70;13.13;;;-4.40;99.90;;;;;;2046736;28;20703;-65
2024/01/10 04:42:45;;;;;;;27.70;14.87;;;-4.40;99.90;;;;;;2044936;28;20238;-64
2024/01/10 04:43:45;;;;;;;24.40;13.65;;;-4.40;99.90;;;;;;2044777;28;20839;-64
2024/01/10 04:44:46;;;;;;;21.73;12.17;;;-4.50;99.90;;;;;;2044377;28;20242;-64
2024/01/10 04:45:47;;;;;;;26.13;12.70;;;-4.40;99.90;;;;;;2044022;28;20342;-64
2024/01/10 04:46:47;;;;;;;26.30;13.60;;;-4.40;99.90;;;;;;2043586;28;20863;-64
2024/01/10 04:47:48;;;;;;;25.10;13.00;;;-4.40;99.90;;;;;;2044586;28;20291;-64
2024/01/10 04:48:49;;;;;;;25.37;13.53;;;-4.40;99.90;;;;;;2047171;28;20258;-64
2024/01/10 04:49:49;;;;;;;24.53;13.70;;;-4.30;99.90;;;;;;2047586;28;20590;-64
2024/01/10 04:50:50;;;;;;;20.70;12.33;;;-4.20;99.90;;;;;;2039093;28;20234;-64
2024/01/10 04:51:51;;;;;;;27.93;14.10;;;-4.10;99.90;;;;;;2046409;28;20856;-65
2024/01/10 04:52:52;;;;;;;24.25;12.90;;;-4.10;99.90;;;;;;2051227;28;20278;-65
2024/01/10 04:53:52;;;;;;;20.30;12.67;;;-4.10;99.90;;;;;;2051347;28;20222;-65
2024/01/10 04:54:53;;;;;;;22.77;11.40;;;-4.20;99.90;;;;;;2048622;28;20226;-64
2024/01/10 04:55:54;;;;;;;25.93;12.67;;;-4.20;99.90;;;;;;2048785;28;20226;-65
2024/01/10 04:56:54;;;;;;;26.00;14.07;;;-4.10;99.90;;;;;;2044818;28;20284;-65
2024/01/10 04:57:55;;;;;;;21.63;12.43;;;-4.10;99.90;;;;;;2044482;28;20295;-64
2024/01/10 04:58:56;;;;;;;23.63;12.43;;;-4.20;99.90;;;;;;2044630;28;20738;-64
2024/01/10 04:59:57;;;;;;;22.40;12.57;;;-4.00;99.90;;;;;;2043871;28;20229;-64
2024/01/10 05:00:57;;;;;;;23.50;12.23;;;-4.10;99.90;;;;;;2043331;28;20691;-64
2024/01/10 05:01:58;;;;;;;26.87;12.83;;;-4.10;99.90;;;;;;2046356;28;20589;-65
2024/01/10 05:02:59;;;;;;;28.83;15.03;;;-4.10;99.90;;;;;;2037525;29;20235;-64
2024/01/10 05:03:59;;;;;;;29.23;15.80;;;-4.00;99.90;;;;;;2045313;28;20221;-65
2024/01/10 05:05:00;;;;;;;31.40;16.17;;;-4.20;99.90;;;;;;2046253;28;20305;-64
2024/01/10 05:06:01;;;;;;;27.38;15.38;;;-4.30;99.90;;;;;;2044336;28;20304;-64
2024/01/10 05:07:02;;;;;;;28.30;14.60;;;-4.40;99.90;;;;;;2046192;28;20187;-64
2024/01/10 05:08:03;;;;;;;28.47;15.30;;;-4.50;99.90;;;;;;2043759;28;20237;-64
2024/01/10 05:09:04;;;;;;;30.55;15.85;;;-4.50;99.90;;;;;;2044016;28;20218;-64
2024/01/10 05:10:05;;;;;;;30.40;16.30;;;-4.50;99.90;;;;;;2043127;28;20272;-64